sensor_id;sensor_type;location;lat;lon;timestamp;P1;durP1;ratioP1;P2;durP2;ratioP2
57828;SDS011;43657;52.698;6.314;2022-12-07T00:02:22;14.50;;;3.13;;
57828;SDS011;43657;52.698;6.314;2022-12-07T00:04:48;7.80;;;3.05;;
57828;SDS011;43657;52.698;6.314;2022-12-07T00:07:14;10.55;;;2.65;;
57828;SDS011;43657;52.698;6.314;2022-12-07T00:09:40;8.13;;;2.30;;
57828;SDS011;43657;52.698;6.314;2022-12-07T00:12:06;4.47;;;1.92;;
57828;SDS011;43657;52.698;6.314;2022-12-07T00:14:33;6.85;;;2.00;;
57828;SDS011;43657;52.698;6.314;2022-12-07T00:16:58;7.72;;;2.03;;
57828;SDS011;43657;52.698;6.314;2022-12-07T00:19:24;10.75;;;2.47;;
57828;SDS011;43657;52.698;6.314;2022-12-07T00:21:49;9.65;;;2.47;;
57828;SDS011;43657;52.698;6.314;2022-12-07T00:24:15;9.05;;;1.95;;
57828;SDS011;43657;52.698;6.314;2022-12-07T00:26:41;9.77;;;2.40;;
57828;SDS011;43657;52.698;6.314;2022-12-07T00:29:17;15.43;;;3.58;;
57828;SDS011;43657;52.698;6.314;2022-12-07T00:31:45;12.85;;;2.90;;
57828;SDS011;43657;52.698;6.314;2022-12-07T00:34:12;7.13;;;2.33;;
57828;SDS011;43657;52.698;6.314;2022-12-07T00:36:43;7.65;;;2.00;;
57828;SDS011;43657;52.698;6.314;2022-12-07T00:39:09;7.95;;;2.05;;
57828;SDS011;43657;52.698;6.314;2022-12-07T00:41:34;13.15;;;2.65;;
57828;SDS011;43657;52.698;6.314;2022-12-07T00:44:00;8.52;;;2.15;;
57828;SDS011;43657;52.698;6.314;2022-12-07T00:46:26;10.27;;;2.55;;
57828;SDS011;43657;52.698;6.314;2022-12-07T00:48:52;12.95;;;2.35;;
57828;SDS011;43657;52.698;6.314;2022-12-07T00:51:20;8.65;;;2.22;;
57828;SDS011;43657;52.698;6.314;2022-12-07T00:53:47;8.13;;;2.13;;
57828;SDS011;43657;52.698;6.314;2022-12-07T00:56:14;14.77;;;2.35;;
57828;SDS011;43657;52.698;6.314;2022-12-07T00:58:41;12.00;;;2.67;;
57828;SDS011;43657;52.698;6.314;2022-12-07T01:01:07;7.28;;;2.22;;
57828;SDS011;43657;52.698;6.314;2022-12-07T01:03:34;11.23;;;2.15;;
57828;SDS011;43657;52.698;6.314;2022-12-07T01:06:00;8.43;;;1.75;;
57828;SDS011;43657;52.698;6.314;2022-12-07T01:08:26;9.80;;;2.30;;
57828;SDS011;43657;52.698;6.314;2022-12-07T01:11:00;10.50;;;2.08;;
57828;SDS011;43657;52.698;6.314;2022-12-07T01:13:27;12.02;;;2.72;;
57828;SDS011;43657;52.698;6.314;2022-12-07T01:15:55;9.43;;;1.98;;
57828;SDS011;43657;52.698;6.314;2022-12-07T01:18:26;12.77;;;2.15;;
57828;SDS011;43657;52.698;6.314;2022-12-07T01:21:01;11.75;;;1.88;;
57828;SDS011;43657;52.698;6.314;2022-12-07T01:23:27;9.93;;;2.22;;
57828;SDS011;43657;52.698;6.314;2022-12-07T01:25:54;8.98;;;1.77;;
57828;SDS011;43657;52.698;6.314;2022-12-07T01:28:20;8.40;;;1.75;;
57828;SDS011;43657;52.698;6.314;2022-12-07T01:30:54;13.52;;;2.00;;
57828;SDS011;43657;52.698;6.314;2022-12-07T01:33:23;11.90;;;2.20;;
57828;SDS011;43657;52.698;6.314;2022-12-07T01:35:49;15.40;;;2.17;;
57828;SDS011;43657;52.698;6.314;2022-12-07T01:38:15;10.82;;;2.05;;
57828;SDS011;43657;52.698;6.314;2022-12-07T01:40:40;15.55;;;1.95;;
57828;SDS011;43657;52.698;6.314;2022-12-07T01:43:16;12.50;;;2.20;;
57828;SDS011;43657;52.698;6.314;2022-12-07T01:45:43;13.00;;;2.20;;
57828;SDS011;43657;52.698;6.314;2022-12-07T01:48:09;9.43;;;2.30;;
57828;SDS011;43657;52.698;6.314;2022-12-07T01:50:37;10.20;;;2.00;;
57828;SDS011;43657;52.698;6.314;2022-12-07T01:53:05;15.60;;;2.70;;
57828;SDS011;43657;52.698;6.314;2022-12-07T01:55:34;14.48;;;2.95;;
57828;SDS011;43657;52.698;6.314;2022-12-07T01:58:04;13.70;;;3.60;;
57828;SDS011;43657;52.698;6.314;2022-12-07T02:00:30;8.52;;;3.25;;
57828;SDS011;43657;52.698;6.314;2022-12-07T02:05:41;8.93;;;2.90;;
57828;SDS011;43657;52.698;6.314;2022-12-07T02:08:08;11.95;;;2.42;;
57828;SDS011;43657;52.698;6.314;2022-12-07T02:10:35;9.20;;;1.90;;
57828;SDS011;43657;52.698;6.314;2022-12-07T02:13:02;9.10;;;1.77;;
57828;SDS011;43657;52.698;6.314;2022-12-07T02:21:06;9.20;;;1.80;;
57828;SDS011;43657;52.698;6.314;2022-12-07T02:29:29;11.65;;;1.67;;
57828;SDS011;43657;52.698;6.314;2022-12-07T02:37:10;10.73;;;2.25;;
57828;SDS011;43657;52.698;6.314;2022-12-07T02:43:06;9.27;;;2.22;;
57828;SDS011;43657;52.698;6.314;2022-12-07T02:45:34;13.18;;;1.85;;
57828;SDS011;43657;52.698;6.314;2022-12-07T02:48:02;14.35;;;1.85;;
57828;SDS011;43657;52.698;6.314;2022-12-07T02:50:29;6.85;;;1.50;;
57828;SDS011;43657;52.698;6.314;2022-12-07T02:52:55;9.70;;;1.83;;
57828;SDS011;43657;52.698;6.314;2022-12-07T02:55:23;8.30;;;1.60;;
57828;SDS011;43657;52.698;6.314;2022-12-07T02:57:55;10.27;;;1.73;;
57828;SDS011;43657;52.698;6.314;2022-12-07T03:03:42;9.40;;;1.40;;
57828;SDS011;43657;52.698;6.314;2022-12-07T03:06:22;7.78;;;1.50;;
57828;SDS011;43657;52.698;6.314;2022-12-07T03:11:31;11.75;;;1.52;;
57828;SDS011;43657;52.698;6.314;2022-12-07T03:14:16;13.45;;;2.17;;
57828;SDS011;43657;52.698;6.314;2022-12-07T03:16:45;8.00;;;1.85;;
57828;SDS011;43657;52.698;6.314;2022-12-07T03:19:19;9.38;;;2.00;;
57828;SDS011;43657;52.698;6.314;2022-12-07T03:21:46;11.05;;;2.72;;
57828;SDS011;43657;52.698;6.314;2022-12-07T03:24:20;13.63;;;2.10;;
57828;SDS011;43657;52.698;6.314;2022-12-07T03:26:52;12.63;;;2.15;;
57828;SDS011;43657;52.698;6.314;2022-12-07T03:29:36;12.25;;;1.60;;
57828;SDS011;43657;52.698;6.314;2022-12-07T03:32:11;11.02;;;1.98;;
57828;SDS011;43657;52.698;6.314;2022-12-07T03:35:11;10.63;;;2.22;;
57828;SDS011;43657;52.698;6.314;2022-12-07T03:37:56;8.30;;;2.05;;
57828;SDS011;43657;52.698;6.314;2022-12-07T03:43:04;11.27;;;2.00;;
57828;SDS011;43657;52.698;6.314;2022-12-07T03:45:37;6.22;;;1.30;;
57828;SDS011;43657;52.698;6.314;2022-12-07T03:48:08;7.80;;;1.20;;
57828;SDS011;43657;52.698;6.314;2022-12-07T03:53:33;9.30;;;1.30;;
57828;SDS011;43657;52.698;6.314;2022-12-07T03:56:29;7.65;;;1.42;;
57828;SDS011;43657;52.698;6.314;2022-12-07T03:58:56;7.20;;;1.20;;
57828;SDS011;43657;52.698;6.314;2022-12-07T04:01:22;8.27;;;1.38;;
57828;SDS011;43657;52.698;6.314;2022-12-07T04:03:48;10.25;;;1.33;;
57828;SDS011;43657;52.698;6.314;2022-12-07T04:06:14;11.07;;;1.63;;
57828;SDS011;43657;52.698;6.314;2022-12-07T04:08:39;7.93;;;1.63;;
57828;SDS011;43657;52.698;6.314;2022-12-07T04:11:05;12.95;;;1.65;;
57828;SDS011;43657;52.698;6.314;2022-12-07T04:13:30;9.10;;;1.40;;
57828;SDS011;43657;52.698;6.314;2022-12-07T04:16:16;8.38;;;1.45;;
57828;SDS011;43657;52.698;6.314;2022-12-07T04:18:42;11.65;;;1.48;;
57828;SDS011;43657;52.698;6.314;2022-12-07T04:21:07;8.18;;;1.27;;
57828;SDS011;43657;52.698;6.314;2022-12-07T04:23:33;9.90;;;1.73;;
57828;SDS011;43657;52.698;6.314;2022-12-07T04:25:59;11.73;;;1.98;;
57828;SDS011;43657;52.698;6.314;2022-12-07T04:28:24;7.70;;;1.63;;
57828;SDS011;43657;52.698;6.314;2022-12-07T04:30:50;6.80;;;1.38;;
57828;SDS011;43657;52.698;6.314;2022-12-07T04:33:16;12.25;;;1.88;;
57828;SDS011;43657;52.698;6.314;2022-12-07T04:35:42;9.50;;;1.30;;
57828;SDS011;43657;52.698;6.314;2022-12-07T04:38:08;7.88;;;1.80;;
57828;SDS011;43657;52.698;6.314;2022-12-07T04:40:34;7.30;;;1.13;;
57828;SDS011;43657;52.698;6.314;2022-12-07T04:42:59;7.15;;;1.60;;
57828;SDS011;43657;52.698;6.314;2022-12-07T04:45:25;8.07;;;1.10;;
57828;SDS011;43657;52.698;6.314;2022-12-07T04:47:51;6.07;;;1.40;;
57828;SDS011;43657;52.698;6.314;2022-12-07T04:50:16;7.15;;;1.25;;
57828;SDS011;43657;52.698;6.314;2022-12-07T04:52:42;9.98;;;2.00;;
57828;SDS011;43657;52.698;6.314;2022-12-07T04:55:08;8.95;;;2.22;;
57828;SDS011;43657;52.698;6.314;2022-12-07T04:57:36;7.85;;;1.80;;
57828;SDS011;43657;52.698;6.314;2022-12-07T05:00:02;13.10;;;1.80;;
57828;SDS011;43657;52.698;6.314;2022-12-07T05:02:31;10.35;;;2.13;;
57828;SDS011;43657;52.698;6.314;2022-12-07T05:05:00;10.63;;;1.80;;
57828;SDS011;43657;52.698;6.314;2022-12-07T05:07:25;7.32;;;1.35;;
57828;SDS011;43657;52.698;6.314;2022-12-07T05:09:51;7.63;;;1.27;;
57828;SDS011;43657;52.698;6.314;2022-12-07T05:12:17;7.30;;;1.65;;
57828;SDS011;43657;52.698;6.314;2022-12-07T05:14:43;9.52;;;1.50;;
57828;SDS011;43657;52.698;6.314;2022-12-07T05:17:08;10.43;;;1.67;;
57828;SDS011;43657;52.698;6.314;2022-12-07T05:19:34;9.93;;;2.13;;
57828;SDS011;43657;52.698;6.314;2022-12-07T05:22:00;13.93;;;1.83;;
57828;SDS011;43657;52.698;6.314;2022-12-07T05:24:25;11.75;;;1.50;;
57828;SDS011;43657;52.698;6.314;2022-12-07T05:26:51;10.18;;;1.67;;
57828;SDS011;43657;52.698;6.314;2022-12-07T05:29:17;12.05;;;2.22;;
57828;SDS011;43657;52.698;6.314;2022-12-07T05:31:43;11.07;;;1.95;;
57828;SDS011;43657;52.698;6.314;2022-12-07T05:34:09;7.85;;;1.40;;
57828;SDS011;43657;52.698;6.314;2022-12-07T05:36:35;10.20;;;1.95;;
57828;SDS011;43657;52.698;6.314;2022-12-07T05:39:03;9.85;;;2.22;;
57828;SDS011;43657;52.698;6.314;2022-12-07T05:41:36;9.18;;;1.88;;
57828;SDS011;43657;52.698;6.314;2022-12-07T05:44:20;9.57;;;1.80;;
57828;SDS011;43657;52.698;6.314;2022-12-07T05:46:49;11.25;;;2.35;;
57828;SDS011;43657;52.698;6.314;2022-12-07T05:49:17;12.20;;;1.48;;
57828;SDS011;43657;52.698;6.314;2022-12-07T05:51:43;13.30;;;1.70;;
57828;SDS011;43657;52.698;6.314;2022-12-07T05:54:11;7.65;;;1.33;;
57828;SDS011;43657;52.698;6.314;2022-12-07T05:56:37;6.38;;;1.45;;
57828;SDS011;43657;52.698;6.314;2022-12-07T05:59:05;9.57;;;1.30;;
57828;SDS011;43657;52.698;6.314;2022-12-07T06:01:50;12.35;;;1.70;;
57828;SDS011;43657;52.698;6.314;2022-12-07T06:04:16;10.13;;;1.60;;
57828;SDS011;43657;52.698;6.314;2022-12-07T06:06:45;12.02;;;1.58;;
57828;SDS011;43657;52.698;6.314;2022-12-07T06:09:12;8.75;;;1.90;;
57828;SDS011;43657;52.698;6.314;2022-12-07T06:11:45;11.90;;;1.95;;
57828;SDS011;43657;52.698;6.314;2022-12-07T06:14:33;10.50;;;1.85;;
57828;SDS011;43657;52.698;6.314;2022-12-07T06:16:59;13.05;;;2.00;;
57828;SDS011;43657;52.698;6.314;2022-12-07T06:19:31;13.65;;;2.42;;
57828;SDS011;43657;52.698;6.314;2022-12-07T06:21:57;8.48;;;1.70;;
57828;SDS011;43657;52.698;6.314;2022-12-07T06:24:31;14.20;;;2.08;;
57828;SDS011;43657;52.698;6.314;2022-12-07T06:26:58;8.32;;;2.00;;
57828;SDS011;43657;52.698;6.314;2022-12-07T06:29:29;15.30;;;2.13;;
57828;SDS011;43657;52.698;6.314;2022-12-07T06:31:55;11.38;;;2.22;;
57828;SDS011;43657;52.698;6.314;2022-12-07T06:34:21;11.55;;;2.15;;
57828;SDS011;43657;52.698;6.314;2022-12-07T06:36:51;9.93;;;2.92;;
57828;SDS011;43657;52.698;6.314;2022-12-07T06:39:19;8.75;;;1.90;;
57828;SDS011;43657;52.698;6.314;2022-12-07T06:41:48;5.85;;;1.98;;
57828;SDS011;43657;52.698;6.314;2022-12-07T06:44:15;10.05;;;2.05;;
57828;SDS011;43657;52.698;6.314;2022-12-07T06:46:40;8.15;;;1.98;;
57828;SDS011;43657;52.698;6.314;2022-12-07T06:49:06;9.02;;;1.85;;
57828;SDS011;43657;52.698;6.314;2022-12-07T06:51:33;7.80;;;1.98;;
57828;SDS011;43657;52.698;6.314;2022-12-07T06:54:02;10.18;;;2.00;;
57828;SDS011;43657;52.698;6.314;2022-12-07T06:56:31;11.02;;;1.80;;
57828;SDS011;43657;52.698;6.314;2022-12-07T06:58:58;12.57;;;2.15;;
57828;SDS011;43657;52.698;6.314;2022-12-07T07:01:24;10.40;;;2.40;;
57828;SDS011;43657;52.698;6.314;2022-12-07T07:03:50;7.15;;;2.28;;
57828;SDS011;43657;52.698;6.314;2022-12-07T07:06:21;8.55;;;2.15;;
57828;SDS011;43657;52.698;6.314;2022-12-07T07:08:47;8.82;;;2.67;;
57828;SDS011;43657;52.698;6.314;2022-12-07T07:11:14;7.85;;;2.22;;
57828;SDS011;43657;52.698;6.314;2022-12-07T07:13:42;5.18;;;1.95;;
57828;SDS011;43657;52.698;6.314;2022-12-07T07:16:08;5.47;;;1.98;;
57828;SDS011;43657;52.698;6.314;2022-12-07T07:18:37;5.97;;;1.95;;
57828;SDS011;43657;52.698;6.314;2022-12-07T07:21:03;6.93;;;2.10;;
57828;SDS011;43657;52.698;6.314;2022-12-07T07:23:32;6.00;;;1.70;;
57828;SDS011;43657;52.698;6.314;2022-12-07T07:26:01;11.40;;;2.30;;
57828;SDS011;43657;52.698;6.314;2022-12-07T07:28:26;9.25;;;2.22;;
57828;SDS011;43657;52.698;6.314;2022-12-07T07:31:03;4.30;;;1.50;;
57828;SDS011;43657;52.698;6.314;2022-12-07T07:33:32;5.07;;;1.02;;
57828;SDS011;43657;52.698;6.314;2022-12-07T07:36:00;8.00;;;1.45;;
57828;SDS011;43657;52.698;6.314;2022-12-07T07:38:29;5.65;;;1.25;;
57828;SDS011;43657;52.698;6.314;2022-12-07T07:40:58;4.35;;;1.00;;
57828;SDS011;43657;52.698;6.314;2022-12-07T07:43:35;7.85;;;1.40;;
57828;SDS011;43657;52.698;6.314;2022-12-07T07:46:04;5.53;;;0.90;;
57828;SDS011;43657;52.698;6.314;2022-12-07T07:48:34;7.85;;;1.48;;
57828;SDS011;43657;52.698;6.314;2022-12-07T07:51:08;6.10;;;1.70;;
57828;SDS011;43657;52.698;6.314;2022-12-07T07:53:43;6.50;;;1.55;;
57828;SDS011;43657;52.698;6.314;2022-12-07T07:56:15;10.00;;;2.08;;
57828;SDS011;43657;52.698;6.314;2022-12-07T07:58:40;9.25;;;1.80;;
57828;SDS011;43657;52.698;6.314;2022-12-07T08:01:06;10.77;;;1.92;;
57828;SDS011;43657;52.698;6.314;2022-12-07T08:03:41;10.43;;;1.77;;
57828;SDS011;43657;52.698;6.314;2022-12-07T08:06:10;9.57;;;2.10;;
57828;SDS011;43657;52.698;6.314;2022-12-07T08:08:43;8.45;;;2.00;;
57828;SDS011;43657;52.698;6.314;2022-12-07T08:11:12;10.18;;;2.08;;
57828;SDS011;43657;52.698;6.314;2022-12-07T08:13:38;11.48;;;2.40;;
57828;SDS011;43657;52.698;6.314;2022-12-07T08:16:07;8.10;;;1.67;;
57828;SDS011;43657;52.698;6.314;2022-12-07T08:18:40;8.27;;;2.40;;
57828;SDS011;43657;52.698;6.314;2022-12-07T08:21:09;11.00;;;2.50;;
57828;SDS011;43657;52.698;6.314;2022-12-07T08:23:47;9.57;;;2.28;;
57828;SDS011;43657;52.698;6.314;2022-12-07T08:26:16;9.30;;;1.90;;
57828;SDS011;43657;52.698;6.314;2022-12-07T08:28:46;13.30;;;2.72;;
57828;SDS011;43657;52.698;6.314;2022-12-07T08:31:18;12.52;;;2.42;;
57828;SDS011;43657;52.698;6.314;2022-12-07T08:33:58;14.02;;;3.35;;
57828;SDS011;43657;52.698;6.314;2022-12-07T08:36:26;11.98;;;3.05;;
57828;SDS011;43657;52.698;6.314;2022-12-07T08:38:52;10.05;;;2.92;;
57828;SDS011;43657;52.698;6.314;2022-12-07T08:41:18;9.15;;;2.67;;
57828;SDS011;43657;52.698;6.314;2022-12-07T08:43:43;10.05;;;2.83;;
57828;SDS011;43657;52.698;6.314;2022-12-07T08:51:28;11.70;;;2.72;;
57828;SDS011;43657;52.698;6.314;2022-12-07T08:53:54;9.50;;;2.88;;
57828;SDS011;43657;52.698;6.314;2022-12-07T08:56:23;12.70;;;3.08;;
57828;SDS011;43657;52.698;6.314;2022-12-07T08:58:58;15.90;;;3.10;;
57828;SDS011;43657;52.698;6.314;2022-12-07T09:01:27;10.68;;;2.95;;
57828;SDS011;43657;52.698;6.314;2022-12-07T09:03:54;10.50;;;3.13;;
57828;SDS011;43657;52.698;6.314;2022-12-07T09:06:22;15.85;;;3.08;;
57828;SDS011;43657;52.698;6.314;2022-12-07T09:08:49;9.63;;;3.05;;
57828;SDS011;43657;52.698;6.314;2022-12-07T09:11:19;9.15;;;2.45;;
57828;SDS011;43657;52.698;6.314;2022-12-07T09:13:44;11.15;;;3.40;;
57828;SDS011;43657;52.698;6.314;2022-12-07T09:16:13;11.95;;;2.83;;
57828;SDS011;43657;52.698;6.314;2022-12-07T09:18:38;12.23;;;3.03;;
57828;SDS011;43657;52.698;6.314;2022-12-07T09:21:04;10.55;;;3.10;;
57828;SDS011;43657;52.698;6.314;2022-12-07T09:23:33;10.23;;;3.00;;
57828;SDS011;43657;52.698;6.314;2022-12-07T09:26:00;13.07;;;3.67;;
57828;SDS011;43657;52.698;6.314;2022-12-07T09:28:35;10.00;;;2.58;;
57828;SDS011;43657;52.698;6.314;2022-12-07T09:31:01;9.43;;;2.60;;
57828;SDS011;43657;52.698;6.314;2022-12-07T09:33:30;13.52;;;2.92;;
57828;SDS011;43657;52.698;6.314;2022-12-07T09:36:00;11.68;;;2.58;;
57828;SDS011;43657;52.698;6.314;2022-12-07T09:38:28;8.95;;;2.50;;
57828;SDS011;43657;52.698;6.314;2022-12-07T09:40:54;10.18;;;2.25;;
57828;SDS011;43657;52.698;6.314;2022-12-07T09:43:22;9.85;;;2.78;;
57828;SDS011;43657;52.698;6.314;2022-12-07T09:45:53;6.40;;;2.15;;
57828;SDS011;43657;52.698;6.314;2022-12-07T09:48:21;8.90;;;2.30;;
57828;SDS011;43657;52.698;6.314;2022-12-07T09:50:54;9.10;;;2.72;;
57828;SDS011;43657;52.698;6.314;2022-12-07T09:53:27;9.07;;;2.22;;
57828;SDS011;43657;52.698;6.314;2022-12-07T09:55:56;11.32;;;2.30;;
57828;SDS011;43657;52.698;6.314;2022-12-07T09:58:26;8.48;;;1.80;;
57828;SDS011;43657;52.698;6.314;2022-12-07T10:00:56;8.50;;;1.95;;
57828;SDS011;43657;52.698;6.314;2022-12-07T10:03:26;7.40;;;1.40;;
57828;SDS011;43657;52.698;6.314;2022-12-07T10:05:53;12.43;;;1.98;;
57828;SDS011;43657;52.698;6.314;2022-12-07T10:08:19;6.55;;;1.88;;
57828;SDS011;43657;52.698;6.314;2022-12-07T10:10:51;6.68;;;1.38;;
57828;SDS011;43657;52.698;6.314;2022-12-07T10:13:33;6.53;;;1.35;;
57828;SDS011;43657;52.698;6.314;2022-12-07T10:16:00;7.35;;;1.67;;
57828;SDS011;43657;52.698;6.314;2022-12-07T10:18:36;6.55;;;1.40;;
57828;SDS011;43657;52.698;6.314;2022-12-07T10:21:10;5.95;;;1.20;;
57828;SDS011;43657;52.698;6.314;2022-12-07T10:26:31;7.25;;;1.83;;
57828;SDS011;43657;52.698;6.314;2022-12-07T10:29:13;6.97;;;1.80;;
57828;SDS011;43657;52.698;6.314;2022-12-07T10:31:54;8.77;;;1.55;;
57828;SDS011;43657;52.698;6.314;2022-12-07T10:34:41;8.18;;;1.75;;
57828;SDS011;43657;52.698;6.314;2022-12-07T10:42:30;6.53;;;1.30;;
57828;SDS011;43657;52.698;6.314;2022-12-07T10:48:11;7.43;;;1.20;;
57828;SDS011;43657;52.698;6.314;2022-12-07T10:59:29;5.95;;;1.40;;
57828;SDS011;43657;52.698;6.314;2022-12-07T11:22:09;4.22;;;0.95;;
57828;SDS011;43657;52.698;6.314;2022-12-07T11:24:50;4.70;;;1.10;;
57828;SDS011;43657;52.698;6.314;2022-12-07T11:27:29;9.05;;;2.45;;
57828;SDS011;43657;52.698;6.314;2022-12-07T11:30:07;7.82;;;2.55;;
57828;SDS011;43657;52.698;6.314;2022-12-07T11:32:40;6.18;;;1.83;;
57828;SDS011;43657;52.698;6.314;2022-12-07T11:35:24;5.78;;;1.27;;
57828;SDS011;43657;52.698;6.314;2022-12-07T11:38:00;6.47;;;1.20;;
57828;SDS011;43657;52.698;6.314;2022-12-07T11:40:34;6.03;;;1.48;;
57828;SDS011;43657;52.698;6.314;2022-12-07T11:43:19;8.50;;;1.55;;
57828;SDS011;43657;52.698;6.314;2022-12-07T11:45:48;9.02;;;1.85;;
57828;SDS011;43657;52.698;6.314;2022-12-07T11:51:03;6.22;;;1.95;;
57828;SDS011;43657;52.698;6.314;2022-12-07T11:53:56;5.75;;;1.40;;
57828;SDS011;43657;52.698;6.314;2022-12-07T11:56:47;6.22;;;1.38;;
57828;SDS011;43657;52.698;6.314;2022-12-07T11:59:22;7.97;;;1.48;;
57828;SDS011;43657;52.698;6.314;2022-12-07T12:01:57;5.82;;;1.20;;
57828;SDS011;43657;52.698;6.314;2022-12-07T12:04:46;7.65;;;1.52;;
57828;SDS011;43657;52.698;6.314;2022-12-07T12:07:17;6.68;;;1.60;;
57828;SDS011;43657;52.698;6.314;2022-12-07T12:10:13;9.27;;;1.77;;
57828;SDS011;43657;52.698;6.314;2022-12-07T12:12:57;8.98;;;1.73;;
57828;SDS011;43657;52.698;6.314;2022-12-07T12:15:45;7.90;;;1.60;;
57828;SDS011;43657;52.698;6.314;2022-12-07T12:21:15;8.13;;;1.40;;
57828;SDS011;43657;52.698;6.314;2022-12-07T12:26:30;9.13;;;1.90;;
57828;SDS011;43657;52.698;6.314;2022-12-07T12:29:00;6.88;;;1.55;;
57828;SDS011;43657;52.698;6.314;2022-12-07T12:31:38;6.30;;;1.10;;
57828;SDS011;43657;52.698;6.314;2022-12-07T12:37:01;6.38;;;1.20;;
57828;SDS011;43657;52.698;6.314;2022-12-07T12:39:27;5.35;;;1.40;;
57828;SDS011;43657;52.698;6.314;2022-12-07T12:41:53;6.07;;;1.60;;
57828;SDS011;43657;52.698;6.314;2022-12-07T12:46:51;8.23;;;1.10;;
57828;SDS011;43657;52.698;6.314;2022-12-07T12:54:38;5.70;;;1.23;;
57828;SDS011;43657;52.698;6.314;2022-12-07T12:57:45;8.10;;;1.45;;
57828;SDS011;43657;52.698;6.314;2022-12-07T13:00:19;10.18;;;1.80;;
57828;SDS011;43657;52.698;6.314;2022-12-07T13:02:50;5.05;;;1.15;;
57828;SDS011;43657;52.698;6.314;2022-12-07T13:05:22;6.97;;;1.17;;
57828;SDS011;43657;52.698;6.314;2022-12-07T13:07:54;7.03;;;1.42;;
57828;SDS011;43657;52.698;6.314;2022-12-07T13:10:41;6.97;;;1.20;;
57828;SDS011;43657;52.698;6.314;2022-12-07T13:18:34;5.30;;;1.00;;
57828;SDS011;43657;52.698;6.314;2022-12-07T13:26:15;5.80;;;1.00;;
57828;SDS011;43657;52.698;6.314;2022-12-07T13:28:52;3.55;;;0.73;;
57828;SDS011;43657;52.698;6.314;2022-12-07T13:34:39;11.27;;;1.98;;
57828;SDS011;43657;52.698;6.314;2022-12-07T13:37:14;7.70;;;1.83;;
57828;SDS011;43657;52.698;6.314;2022-12-07T13:39:48;6.57;;;2.00;;
57828;SDS011;43657;52.698;6.314;2022-12-07T13:42:19;11.82;;;1.67;;
57828;SDS011;43657;52.698;6.314;2022-12-07T13:44:51;8.88;;;1.67;;
57828;SDS011;43657;52.698;6.314;2022-12-07T13:49:59;7.65;;;1.73;;
57828;SDS011;43657;52.698;6.314;2022-12-07T13:52:25;6.97;;;1.33;;
57828;SDS011;43657;52.698;6.314;2022-12-07T13:54:57;7.75;;;1.52;;
57828;SDS011;43657;52.698;6.314;2022-12-07T13:57:27;6.40;;;1.20;;
57828;SDS011;43657;52.698;6.314;2022-12-07T14:00:00;3.55;;;1.00;;
57828;SDS011;43657;52.698;6.314;2022-12-07T14:02:33;5.32;;;1.27;;
57828;SDS011;43657;52.698;6.314;2022-12-07T14:05:06;5.28;;;1.25;;
57828;SDS011;43657;52.698;6.314;2022-12-07T14:08:00;6.07;;;1.10;;
57828;SDS011;43657;52.698;6.314;2022-12-07T14:13:34;6.78;;;1.40;;
57828;SDS011;43657;52.698;6.314;2022-12-07T14:16:03;5.15;;;1.33;;
57828;SDS011;43657;52.698;6.314;2022-12-07T14:18:54;4.68;;;1.00;;
57828;SDS011;43657;52.698;6.314;2022-12-07T14:21:25;5.60;;;1.10;;
57828;SDS011;43657;52.698;6.314;2022-12-07T14:26:43;7.00;;;1.30;;
57828;SDS011;43657;52.698;6.314;2022-12-07T14:31:55;7.45;;;1.20;;
57828;SDS011;43657;52.698;6.314;2022-12-07T14:34:22;8.65;;;1.95;;
57828;SDS011;43657;52.698;6.314;2022-12-07T14:36:48;8.27;;;1.40;;
57828;SDS011;43657;52.698;6.314;2022-12-07T14:39:14;6.65;;;1.15;;
57828;SDS011;43657;52.698;6.314;2022-12-07T14:41:40;4.82;;;1.38;;
57828;SDS011;43657;52.698;6.314;2022-12-07T14:44:22;4.10;;;0.90;;
57828;SDS011;43657;52.698;6.314;2022-12-07T14:46:49;3.47;;;0.98;;
57828;SDS011;43657;52.698;6.314;2022-12-07T14:49:15;5.78;;;1.05;;
57828;SDS011;43657;52.698;6.314;2022-12-07T14:51:42;6.38;;;1.75;;
57828;SDS011;43657;52.698;6.314;2022-12-07T14:54:18;4.22;;;0.88;;
57828;SDS011;43657;52.698;6.314;2022-12-07T14:56:45;2.58;;;0.80;;
57828;SDS011;43657;52.698;6.314;2022-12-07T14:59:14;7.05;;;1.17;;
57828;SDS011;43657;52.698;6.314;2022-12-07T15:01:40;2.53;;;0.80;;
57828;SDS011;43657;52.698;6.314;2022-12-07T15:04:06;4.20;;;1.02;;
57828;SDS011;43657;52.698;6.314;2022-12-07T15:06:32;3.03;;;1.25;;
57828;SDS011;43657;52.698;6.314;2022-12-07T15:08:58;6.50;;;1.48;;
57828;SDS011;43657;52.698;6.314;2022-12-07T15:11:24;5.00;;;1.58;;
57828;SDS011;43657;52.698;6.314;2022-12-07T15:13:49;4.97;;;1.40;;
57828;SDS011;43657;52.698;6.314;2022-12-07T15:16:33;4.82;;;1.10;;
57828;SDS011;43657;52.698;6.314;2022-12-07T15:19:01;4.47;;;1.08;;
57828;SDS011;43657;52.698;6.314;2022-12-07T15:21:26;5.10;;;0.98;;
57828;SDS011;43657;52.698;6.314;2022-12-07T15:23:52;6.38;;;1.02;;
57828;SDS011;43657;52.698;6.314;2022-12-07T15:26:19;5.28;;;1.27;;
57828;SDS011;43657;52.698;6.314;2022-12-07T15:28:45;9.82;;;1.85;;
57828;SDS011;43657;52.698;6.314;2022-12-07T15:31:11;3.95;;;1.08;;
57828;SDS011;43657;52.698;6.314;2022-12-07T15:33:38;2.92;;;1.23;;
57828;SDS011;43657;52.698;6.314;2022-12-07T15:36:04;3.05;;;1.05;;
57828;SDS011;43657;52.698;6.314;2022-12-07T15:38:30;6.57;;;1.33;;
57828;SDS011;43657;52.698;6.314;2022-12-07T15:40:56;6.30;;;1.27;;
57828;SDS011;43657;52.698;6.314;2022-12-07T15:43:22;4.53;;;1.13;;
57828;SDS011;43657;52.698;6.314;2022-12-07T15:46:07;4.00;;;1.25;;
57828;SDS011;43657;52.698;6.314;2022-12-07T15:48:33;6.57;;;1.42;;
57828;SDS011;43657;52.698;6.314;2022-12-07T15:51:05;2.80;;;0.85;;
57828;SDS011;43657;52.698;6.314;2022-12-07T15:53:34;4.10;;;1.00;;
57828;SDS011;43657;52.698;6.314;2022-12-07T15:56:00;6.80;;;1.45;;
57828;SDS011;43657;52.698;6.314;2022-12-07T15:58:30;5.63;;;1.13;;
57828;SDS011;43657;52.698;6.314;2022-12-07T16:00:56;4.10;;;1.30;;
57828;SDS011;43657;52.698;6.314;2022-12-07T16:03:22;3.33;;;1.30;;
57828;SDS011;43657;52.698;6.314;2022-12-07T16:05:51;6.32;;;1.70;;
57828;SDS011;43657;52.698;6.314;2022-12-07T16:08:18;5.90;;;1.92;;
57828;SDS011;43657;52.698;6.314;2022-12-07T16:10:44;3.70;;;1.80;;
57828;SDS011;43657;52.698;6.314;2022-12-07T16:13:10;4.18;;;1.88;;
57828;SDS011;43657;52.698;6.314;2022-12-07T16:15:41;7.35;;;1.73;;
57828;SDS011;43657;52.698;6.314;2022-12-07T16:18:08;6.20;;;1.65;;
57828;SDS011;43657;52.698;6.314;2022-12-07T16:20:34;2.15;;;1.50;;
57828;SDS011;43657;52.698;6.314;2022-12-07T16:23:00;4.07;;;1.40;;
57828;SDS011;43657;52.698;6.314;2022-12-07T16:25:26;4.72;;;1.50;;
57828;SDS011;43657;52.698;6.314;2022-12-07T16:27:52;7.15;;;1.70;;
57828;SDS011;43657;52.698;6.314;2022-12-07T16:30:21;4.93;;;1.70;;
57828;SDS011;43657;52.698;6.314;2022-12-07T16:32:47;6.95;;;1.48;;
57828;SDS011;43657;52.698;6.314;2022-12-07T16:35:13;5.03;;;1.73;;
57828;SDS011;43657;52.698;6.314;2022-12-07T16:37:40;4.65;;;1.98;;
57828;SDS011;43657;52.698;6.314;2022-12-07T16:40:07;3.75;;;1.63;;
57828;SDS011;43657;52.698;6.314;2022-12-07T16:42:34;6.30;;;2.05;;
57828;SDS011;43657;52.698;6.314;2022-12-07T16:45:00;4.68;;;2.30;;
57828;SDS011;43657;52.698;6.314;2022-12-07T16:47:27;7.90;;;2.00;;
57828;SDS011;43657;52.698;6.314;2022-12-07T16:49:53;5.05;;;2.03;;
57828;SDS011;43657;52.698;6.314;2022-12-07T16:52:21;5.07;;;1.90;;
57828;SDS011;43657;52.698;6.314;2022-12-07T16:54:47;9.50;;;2.58;;
57828;SDS011;43657;52.698;6.314;2022-12-07T16:57:14;4.93;;;1.85;;
57828;SDS011;43657;52.698;6.314;2022-12-07T16:59:40;4.70;;;1.90;;
57828;SDS011;43657;52.698;6.314;2022-12-07T17:02:08;7.13;;;2.95;;
57828;SDS011;43657;52.698;6.314;2022-12-07T17:04:36;8.25;;;3.10;;